createdAt,value
2019-04-30T00:01:42.287Z,10.60
2019-04-30T00:04:15.756Z,10.50
2019-04-30T00:06:45.400Z,10.40
2019-04-30T00:09:19.038Z,10.30
2019-04-30T00:11:50.779Z,10.20
2019-04-30T00:14:18.654Z,10.10
2019-04-30T00:16:47.903Z,10.10
2019-04-30T00:19:19.693Z,10.00
2019-04-30T00:21:54.542Z,10.00
2019-04-30T00:24:19.204Z,10.00
2019-04-30T00:26:52.266Z,9.90
2019-04-30T00:29:26.788Z,9.80
2019-04-30T00:31:50.530Z,9.80
2019-04-30T00:34:19.814Z,9.70
2019-04-30T00:36:49.295Z,9.70
2019-04-30T00:39:18.546Z,9.60
2019-04-30T00:41:47.808Z,9.60
2019-04-30T00:44:19.871Z,9.50
2019-04-30T00:46:48.140Z,9.40
2019-04-30T00:49:22.947Z,9.40
2019-04-30T00:51:49.759Z,9.30
2019-04-30T00:54:22.488Z,9.30
2019-04-30T00:56:50.497Z,9.20
2019-04-30T00:59:19.886Z,9.20
2019-04-30T01:02:08.126Z,9.10
2019-04-30T01:04:42.662Z,9.00
2019-04-30T01:07:15.428Z,9.00
2019-04-30T01:09:49.747Z,9.00
2019-04-30T01:12:27.671Z,8.90
2019-04-30T01:14:49.851Z,8.90
2019-04-30T01:17:19.226Z,8.80
2019-04-30T01:19:51.168Z,8.80
2019-04-30T01:22:27.721Z,8.80
2019-04-30T01:24:50.541Z,8.80
2019-04-30T01:27:20.613Z,8.80
2019-04-30T01:29:49.915Z,8.70
2019-04-30T01:32:20.995Z,8.70
2019-04-30T01:34:53.875Z,8.70
2019-04-30T01:37:28.352Z,8.70
2019-04-30T01:39:52.253Z,8.60
2019-04-30T01:42:23.859Z,8.60
2019-04-30T01:44:53.986Z,8.60
2019-04-30T01:47:27.698Z,8.50
2019-04-30T01:49:56.020Z,8.50
2019-04-30T01:52:35.166Z,8.40
2019-04-30T01:55:00.570Z,8.40
2019-04-30T01:57:39.151Z,8.30
2019-04-30T02:00:33.853Z,8.40
2019-04-30T02:03:03.269Z,8.30
2019-04-30T02:05:32.763Z,8.30
2019-04-30T02:08:03.178Z,8.30
2019-04-30T02:10:32.629Z,8.30
2019-04-30T02:13:02.091Z,8.20
2019-04-30T02:15:31.456Z,8.20
2019-04-30T02:18:00.868Z,8.10
2019-04-30T02:20:30.248Z,8.10
2019-04-30T02:22:59.745Z,8.00
2019-04-30T02:25:31.276Z,8.00
2019-04-30T02:28:00.848Z,7.90
2019-04-30T02:30:30.756Z,7.80
2019-04-30T02:33:03.224Z,7.80
2019-04-30T02:35:54.719Z,7.70
2019-04-30T02:38:30.098Z,7.70
2019-04-30T02:41:02.023Z,7.60
2019-04-30T02:43:33.754Z,7.60
2019-04-30T02:46:05.049Z,7.50
2019-04-30T02:48:39.314Z,7.50
2019-04-30T02:51:10.308Z,7.40
2019-04-30T02:54:24.074Z,7.40
2019-04-30T02:57:13.403Z,7.40
2019-04-30T03:00:01.212Z,7.40
2019-04-30T03:02:31.642Z,7.30
2019-04-30T03:05:01.086Z,7.30
2019-04-30T03:07:30.894Z,7.30
2019-04-30T03:10:01.210Z,7.20
2019-04-30T03:12:33.619Z,7.20
2019-04-30T03:15:01.814Z,7.20
2019-04-30T03:17:50.775Z,7.30
2019-04-30T03:20:40.057Z,7.20
2019-04-30T03:23:09.795Z,7.20
2019-04-30T03:25:40.519Z,7.20
2019-04-30T03:28:10.092Z,7.20
2019-04-30T03:30:41.870Z,7.20
2019-04-30T03:33:12.699Z,7.10
2019-04-30T03:35:47.440Z,7.10
2019-04-30T03:38:12.448Z,7.10
2019-04-30T03:40:42.047Z,7.10
2019-04-30T03:43:11.348Z,7.10
2019-04-30T03:45:40.643Z,7.00
2019-04-30T03:48:10.395Z,7.00
2019-04-30T03:50:52.485Z,7.00
2019-04-30T03:53:10.931Z,6.90
2019-04-30T03:55:40.394Z,6.90
2019-04-30T03:58:12.446Z,6.90
2019-04-30T04:01:03.687Z,6.90
2019-04-30T04:03:35.632Z,6.90
2019-04-30T04:06:21.656Z,6.90
2019-04-30T04:09:00.240Z,6.90
2019-04-30T04:11:33.891Z,6.90
2019-04-30T04:14:22.669Z,6.90
2019-04-30T04:16:52.361Z,6.90
2019-04-30T04:19:21.739Z,6.90
2019-04-30T04:21:51.188Z,7.00
2019-04-30T04:24:20.697Z,7.00
2019-04-30T04:26:50.453Z,6.90
2019-04-30T04:29:19.958Z,6.90
2019-04-30T04:31:50.235Z,6.90
2019-04-30T04:34:19.996Z,6.90
2019-04-30T04:37:00.658Z,6.90
2019-04-30T04:39:29.979Z,6.90
2019-04-30T04:42:00.054Z,6.90
2019-04-30T04:44:29.575Z,7.00
2019-04-30T04:47:00.122Z,7.00
2019-04-30T04:49:30.565Z,7.00
2019-04-30T04:52:00.095Z,7.10
2019-04-30T04:54:30.005Z,7.10
2019-04-30T04:57:14.048Z,7.10
2019-04-30T04:59:30.452Z,7.10
2019-04-30T05:02:02.970Z,7.20
2019-04-30T05:04:32.453Z,7.20
2019-04-30T05:07:01.715Z,7.30
2019-04-30T05:09:31.040Z,7.30
2019-04-30T05:12:00.325Z,7.40
2019-04-30T05:14:29.626Z,7.40
2019-04-30T05:16:58.918Z,7.50
2019-04-30T05:19:28.650Z,7.50
2019-04-30T05:22:04.443Z,7.50
2019-04-30T05:24:41.823Z,7.60
2019-04-30T05:27:11.110Z,7.60
2019-04-30T05:29:40.319Z,7.70
2019-04-30T05:32:09.543Z,7.70
2019-04-30T05:34:38.953Z,7.80
2019-04-30T05:37:09.086Z,7.90
2019-04-30T05:39:39.044Z,7.90
2019-04-30T05:42:08.843Z,7.90
2019-04-30T05:44:39.565Z,7.90
2019-04-30T05:47:09.390Z,7.90
2019-04-30T05:49:39.037Z,8.00
2019-04-30T05:52:11.596Z,8.00
2019-04-30T05:54:41.567Z,8.10
2019-04-30T05:57:10.762Z,8.10
2019-04-30T05:59:39.924Z,8.10
2019-04-30T06:02:11.453Z,8.10
2019-04-30T06:04:42.224Z,8.10
2019-04-30T06:07:12.638Z,8.20
2019-04-30T06:09:56.799Z,8.20
2019-04-30T06:12:36.015Z,8.30
2019-04-30T06:15:20.166Z,8.40
2019-04-30T06:18:00.046Z,8.40
2019-04-30T06:20:22.571Z,8.50
2019-04-30T06:22:53.222Z,8.50
2019-04-30T06:25:31.168Z,8.50
2019-04-30T06:27:59.945Z,8.60
2019-04-30T06:30:40.184Z,8.70
2019-04-30T06:33:19.268Z,8.70
2019-04-30T06:35:50.218Z,8.80
2019-04-30T06:38:29.155Z,8.80
2019-04-30T06:40:58.966Z,8.80
2019-04-30T06:43:28.720Z,8.80
2019-04-30T06:45:59.008Z,8.80
2019-04-30T06:48:32.428Z,8.90
2019-04-30T06:51:02.197Z,8.90
2019-04-30T06:53:31.930Z,9.00
2019-04-30T06:56:01.146Z,9.10
2019-04-30T06:58:33.618Z,9.20
2019-04-30T07:01:03.118Z,9.20
2019-04-30T07:03:32.569Z,9.20
2019-04-30T07:06:01.879Z,9.30
2019-04-30T07:08:55.678Z,9.40
2019-04-30T07:11:29.304Z,9.40
2019-04-30T07:13:59.990Z,9.60
2019-04-30T07:16:29.939Z,9.70
2019-04-30T07:18:59.310Z,9.70
2019-04-30T07:21:31.357Z,9.80
2019-04-30T07:24:01.831Z,9.90
2019-04-30T07:26:31.137Z,9.90
2019-04-30T07:29:02.572Z,9.90
2019-04-30T07:31:31.402Z,9.90
2019-04-30T07:34:00.695Z,9.90
2019-04-30T07:36:45.342Z,9.90
2019-04-30T07:39:01.078Z,10.00
2019-04-30T07:41:31.350Z,10.00
2019-04-30T07:44:00.677Z,10.10
2019-04-30T07:46:30.178Z,10.20
2019-04-30T07:49:01.057Z,10.40
2019-04-30T07:51:32.212Z,10.40
2019-04-30T07:54:01.516Z,10.50
2019-04-30T07:56:37.280Z,10.60
2019-04-30T07:59:02.834Z,10.70
2019-04-30T08:01:32.574Z,10.80
2019-04-30T08:04:23.809Z,10.90
2019-04-30T08:06:53.345Z,11.00
2019-04-30T08:09:22.643Z,11.00
2019-04-30T08:11:51.968Z,11.00
2019-04-30T08:14:22.155Z,11.10
2019-04-30T08:16:52.114Z,11.10
2019-04-30T08:19:21.330Z,11.20
2019-04-30T08:21:50.499Z,11.20
2019-04-30T08:24:21.881Z,11.20
2019-04-30T08:26:51.130Z,11.20
2019-04-30T08:29:20.320Z,11.30
2019-04-30T08:31:49.608Z,11.30
2019-04-30T08:34:20.163Z,11.40
2019-04-30T08:36:49.578Z,11.40
2019-04-30T08:39:19.744Z,11.50
2019-04-30T08:41:49.333Z,11.60
2019-04-30T08:44:21.231Z,11.70
2019-04-30T08:46:50.794Z,11.70
2019-04-30T08:49:20.527Z,11.80
2019-04-30T08:51:50.397Z,11.90
2019-04-30T08:54:20.386Z,12.00
2019-04-30T08:56:50.348Z,12.10
2019-04-30T08:59:19.782Z,12.20
2019-04-30T09:01:49.089Z,12.30
2019-04-30T09:04:28.952Z,12.40
2019-04-30T09:06:59.979Z,12.50
2019-04-30T09:09:29.640Z,12.50
2019-04-30T09:11:59.382Z,12.50
2019-04-30T09:14:29.802Z,12.50
2019-04-30T09:16:59.551Z,12.50
2019-04-30T09:19:29.990Z,12.60
2019-04-30T09:21:59.579Z,12.80
2019-04-30T09:24:30.957Z,13.00
2019-04-30T09:27:01.069Z,13.10
2019-04-30T09:29:30.333Z,13.30
2019-04-30T09:31:59.843Z,13.40
2019-04-30T09:34:29.323Z,13.40
2019-04-30T09:36:59.027Z,13.50
2019-04-30T09:39:29.601Z,13.60
2019-04-30T09:42:03.228Z,13.70
2019-04-30T09:44:32.481Z,13.70
2019-04-30T09:47:01.669Z,13.90
2019-04-30T09:49:35.918Z,14.10
2019-04-30T09:52:05.802Z,14.20
2019-04-30T09:54:35.015Z,14.30
2019-04-30T09:57:08.753Z,14.40
2019-04-30T09:59:38.851Z,14.50
2019-04-30T10:02:09.314Z,14.70
2019-04-30T10:04:39.785Z,14.90
2019-04-30T10:07:13.218Z,14.90
2019-04-30T10:09:42.464Z,14.90
2019-04-30T10:12:21.110Z,15.00
2019-04-30T10:14:50.666Z,15.20
2019-04-30T10:17:48.022Z,15.40
2019-04-30T10:20:18.860Z,15.60
2019-04-30T10:22:49.526Z,15.90
2019-04-30T10:25:20.857Z,16.00
2019-04-30T10:27:51.493Z,16.10
2019-04-30T10:30:23.874Z,16.10
2019-04-30T10:32:53.012Z,16.20
2019-04-30T10:35:22.377Z,16.20
2019-04-30T10:37:51.726Z,16.20
2019-04-30T10:40:21.024Z,16.20
2019-04-30T10:42:50.373Z,16.20
2019-04-30T10:45:26.137Z,16.30
2019-04-30T10:47:55.377Z,16.40
2019-04-30T10:50:25.864Z,16.50
2019-04-30T10:52:55.192Z,16.80
2019-04-30T10:55:24.457Z,16.90
2019-04-30T10:57:53.694Z,17.00
2019-04-30T11:00:38.940Z,17.10
2019-04-30T11:03:19.550Z,17.20
2019-04-30T11:05:41.356Z,17.30
2019-04-30T11:08:10.903Z,17.50
2019-04-30T11:10:40.249Z,17.60
2019-04-30T11:13:09.427Z,17.80
2019-04-30T11:15:39.443Z,17.90
2019-04-30T11:18:09.665Z,18.00
2019-04-30T11:20:39.840Z,18.10
2019-04-30T11:23:14.501Z,18.10
2019-04-30T11:25:41.526Z,18.10
2019-04-30T11:28:11.815Z,18.30
2019-04-30T11:30:42.016Z,18.60
2019-04-30T11:33:11.673Z,19.20
2019-04-30T11:35:41.302Z,19.80
2019-04-30T11:38:10.664Z,20.60
2019-04-30T11:40:40.192Z,21.20
2019-04-30T11:43:09.573Z,21.70
2019-04-30T11:46:08.625Z,22.20
2019-04-30T11:48:38.692Z,22.70
2019-04-30T11:51:09.453Z,23.30
2019-04-30T11:53:38.979Z,23.30
2019-04-30T11:56:09.743Z,23.60
2019-04-30T11:58:39.266Z,24.10
2019-04-30T12:01:12.041Z,24.40
2019-04-30T12:03:41.834Z,24.50
2019-04-30T12:06:11.350Z,25.30
2019-04-30T12:08:59.697Z,26.40
2019-04-30T12:11:34.108Z,27.50
2019-04-30T12:14:03.430Z,28.60
2019-04-30T12:16:33.735Z,29.60
2019-04-30T12:19:06.054Z,30.40
2019-04-30T12:21:35.300Z,30.90
2019-04-30T12:24:04.547Z,31.10
2019-04-30T12:26:33.743Z,31.00
2019-04-30T12:29:03.069Z,31.00
2019-04-30T12:31:32.398Z,30.80
2019-04-30T12:34:01.637Z,30.80
2019-04-30T12:36:30.830Z,31.20
2019-04-30T12:39:00.052Z,31.70
2019-04-30T12:41:29.222Z,32.40
2019-04-30T12:43:58.519Z,33.00
2019-04-30T12:46:28.917Z,33.30
2019-04-30T12:49:11.014Z,33.60
2019-04-30T12:52:19.534Z,33.00
2019-04-30T12:54:58.007Z,32.60
2019-04-30T12:57:58.726Z,31.80
2019-04-30T13:00:25.065Z,31.30
2019-04-30T13:02:54.271Z,31.50
2019-04-30T13:05:23.540Z,32.00
2019-04-30T13:07:53.210Z,32.20
2019-04-30T13:10:23.591Z,32.40
2019-04-30T13:12:53.902Z,32.80
2019-04-30T13:15:23.645Z,33.30
2019-04-30T13:17:52.831Z,33.60
2019-04-30T13:20:24.088Z,33.60
2019-04-30T13:22:53.207Z,33.50
2019-04-30T13:25:32.514Z,32.90
2019-04-30T13:27:56.309Z,32.00
2019-04-30T13:30:29.654Z,31.30
2019-04-30T13:33:20.315Z,31.40
2019-04-30T13:35:48.962Z,31.80
2019-04-30T13:38:29.500Z,31.80
2019-04-30T13:41:24.391Z,31.50
2019-04-30T13:44:02.315Z,31.20
2019-04-30T13:46:31.697Z,30.90
2019-04-30T13:49:03.199Z,30.50
2019-04-30T13:51:32.797Z,30.30
2019-04-30T13:54:03.241Z,30.00
2019-04-30T13:56:32.987Z,29.70
2019-04-30T13:59:02.421Z,29.90
2019-04-30T14:01:32.088Z,30.20
2019-04-30T14:04:13.936Z,30.90
2019-04-30T14:06:58.960Z,31.70
2019-04-30T14:09:31.817Z,32.20
2019-04-30T14:12:01.708Z,32.00
2019-04-30T14:14:40.222Z,32.20
2019-04-30T14:17:09.460Z,32.30
2019-04-30T14:19:38.732Z,32.80
2019-04-30T14:22:08.998Z,33.20
2019-04-30T14:24:38.390Z,33.10
2019-04-30T14:27:09.030Z,32.90
2019-04-30T14:29:39.585Z,32.70
2019-04-30T14:32:09.358Z,32.50
2019-04-30T14:34:39.657Z,31.80
2019-04-30T14:37:09.186Z,31.20
2019-04-30T14:39:38.864Z,31.00
2019-04-30T14:42:10.716Z,31.10
2019-04-30T14:44:40.372Z,31.10
2019-04-30T14:47:30.976Z,31.20
2019-04-30T14:50:11.790Z,31.40
2019-04-30T14:52:50.811Z,31.90
2019-04-30T14:55:29.483Z,32.20
2019-04-30T14:58:16.628Z,32.20
2019-04-30T15:00:59.772Z,32.10
2019-04-30T15:03:30.003Z,31.90
2019-04-30T15:05:59.581Z,31.90
2019-04-30T15:08:33.091Z,31.70
2019-04-30T15:11:02.331Z,31.60
2019-04-30T15:13:31.713Z,31.60
2019-04-30T15:16:00.945Z,31.60
2019-04-30T15:18:30.315Z,31.80
2019-04-30T15:20:59.605Z,31.80
2019-04-30T15:23:57.965Z,31.60
2019-04-30T15:26:22.923Z,31.60
2019-04-30T15:28:49.271Z,31.60
2019-04-30T15:31:18.952Z,31.60
2019-04-30T15:34:02.803Z,31.40
2019-04-30T15:36:29.334Z,31.20
2019-04-30T15:39:08.453Z,31.10
2019-04-30T15:41:37.737Z,31.30
2019-04-30T15:44:13.758Z,31.60
2019-04-30T15:46:43.043Z,31.70
2019-04-30T15:49:12.241Z,31.60
2019-04-30T15:51:41.724Z,31.60
2019-04-30T15:54:10.901Z,31.70
2019-04-30T15:56:42.343Z,31.50
2019-04-30T15:59:28.984Z,31.30
2019-04-30T16:02:04.914Z,31.10
2019-04-30T16:04:51.754Z,30.90
2019-04-30T16:07:21.040Z,30.80
2019-04-30T16:10:10.523Z,30.60
2019-04-30T16:12:53.030Z,30.40
2019-04-30T16:15:22.677Z,30.30
2019-04-30T16:17:53.678Z,30.00
2019-04-30T16:20:23.069Z,29.70
2019-04-30T16:22:56.640Z,29.70
2019-04-30T16:25:30.327Z,29.80
2019-04-30T16:27:59.746Z,29.80
2019-04-30T16:30:29.052Z,29.60
2019-04-30T16:32:59.623Z,29.30
2019-04-30T16:35:29.535Z,29.20
2019-04-30T16:37:59.370Z,29.20
2019-04-30T16:40:30.869Z,29.10
2019-04-30T16:43:00.189Z,29.00
2019-04-30T16:45:30.582Z,28.90
2019-04-30T16:48:01.240Z,28.60
2019-04-30T16:50:32.707Z,28.50
2019-04-30T16:53:02.036Z,28.30
2019-04-30T16:55:31.334Z,28.20
2019-04-30T16:58:00.771Z,28.10
2019-04-30T17:00:30.855Z,28.00
2019-04-30T17:03:05.360Z,27.90
2019-04-30T17:05:45.336Z,27.50
2019-04-30T17:08:32.593Z,27.10
2019-04-30T17:11:33.004Z,26.70
2019-04-30T17:14:05.270Z,26.30
2019-04-30T17:16:35.073Z,25.80
2019-04-30T17:19:04.809Z,25.30
2019-04-30T17:21:34.260Z,24.70
2019-04-30T17:24:03.648Z,24.10
2019-04-30T17:26:33.373Z,23.50
2019-04-30T17:29:02.737Z,23.00
2019-04-30T17:31:35.223Z,22.40
2019-04-30T17:34:05.142Z,22.00
2019-04-30T17:36:34.397Z,21.50
2019-04-30T17:39:23.072Z,21.20
2019-04-30T17:41:53.468Z,20.80
2019-04-30T17:44:24.328Z,20.30
2019-04-30T17:46:55.510Z,20.10
2019-04-30T17:49:32.770Z,19.80
2019-04-30T17:52:09.004Z,19.60
2019-04-30T17:54:39.481Z,19.40
2019-04-30T17:57:10.592Z,19.20
2019-04-30T17:59:39.791Z,19.10
2019-04-30T18:02:11.028Z,18.90
2019-04-30T18:04:40.573Z,18.80
2019-04-30T18:07:14.587Z,18.70
2019-04-30T18:09:44.876Z,18.60
2019-04-30T18:12:14.360Z,18.50
2019-04-30T18:14:55.266Z,18.40
2019-04-30T18:17:57.525Z,18.20
2019-04-30T18:20:49.128Z,18.10
2019-04-30T18:23:48.578Z,17.90
2019-04-30T18:26:18.522Z,17.80
2019-04-30T18:28:51.770Z,17.70
2019-04-30T18:31:21.501Z,17.50
2019-04-30T18:33:51.445Z,17.40
2019-04-30T18:36:20.898Z,17.30
2019-04-30T18:38:50.304Z,17.20
2019-04-30T18:41:19.642Z,17.20
2019-04-30T18:43:48.978Z,17.10
2019-04-30T18:46:19.165Z,17.00
2019-04-30T18:48:49.423Z,16.90
2019-04-30T18:51:33.660Z,16.90
2019-04-30T18:53:50.918Z,16.80
2019-04-30T18:56:20.295Z,16.70
2019-04-30T18:58:49.795Z,16.60
2019-04-30T19:01:19.204Z,16.50
2019-04-30T19:03:49.221Z,16.40
2019-04-30T19:06:26.055Z,16.30
2019-04-30T19:09:19.670Z,16.20
2019-04-30T19:11:59.491Z,16.00
2019-04-30T19:14:41.603Z,15.90
2019-04-30T19:17:44.935Z,15.70
2019-04-30T19:20:29.845Z,15.60
2019-04-30T19:22:59.198Z,15.50
2019-04-30T19:25:28.964Z,15.40
2019-04-30T19:28:09.585Z,15.30
2019-04-30T19:30:31.037Z,15.30
2019-04-30T19:33:00.345Z,15.20
2019-04-30T19:35:29.699Z,15.10
2019-04-30T19:37:59.293Z,15.10
2019-04-30T19:40:28.949Z,15.00
2019-04-30T19:42:58.225Z,15.00
2019-04-30T19:45:27.622Z,14.90
2019-04-30T19:47:58.619Z,14.80
2019-04-30T19:50:27.742Z,14.80
2019-04-30T19:52:58.620Z,14.70
2019-04-30T19:55:28.692Z,14.70
2019-04-30T19:57:59.903Z,14.60
2019-04-30T20:00:31.064Z,14.50
2019-04-30T20:03:00.500Z,14.50
2019-04-30T20:05:29.741Z,14.40
2019-04-30T20:07:59.240Z,14.40
2019-04-30T20:10:29.126Z,14.30
2019-04-30T20:12:58.979Z,14.30
2019-04-30T20:15:29.853Z,14.20
2019-04-30T20:18:01.011Z,14.10
2019-04-30T20:20:30.249Z,14.10
2019-04-30T20:22:59.746Z,14.00
2019-04-30T20:25:29.184Z,13.90
2019-04-30T20:27:58.551Z,13.90
2019-04-30T20:30:29.229Z,13.80
2019-04-30T20:32:59.405Z,13.80
2019-04-30T20:35:28.964Z,13.60
2019-04-30T20:38:26.604Z,13.60
2019-04-30T20:41:00.226Z,13.60
2019-04-30T20:43:28.569Z,13.50
2019-04-30T20:45:58.349Z,13.50
2019-04-30T20:48:35.911Z,13.40
2019-04-30T20:51:13.460Z,13.30
2019-04-30T20:53:49.183Z,13.20
2019-04-30T20:56:23.244Z,13.20
2019-04-30T20:58:58.610Z,13.10
2019-04-30T21:01:30.360Z,13.00
2019-04-30T21:04:00.874Z,12.80
2019-04-30T21:06:30.441Z,12.70
2019-04-30T21:08:59.906Z,12.60
2019-04-30T21:11:36.286Z,12.50
2019-04-30T21:14:06.598Z,12.40
2019-04-30T21:16:36.322Z,12.30
2019-04-30T21:19:06.004Z,12.10
2019-04-30T21:21:41.436Z,12.00
2019-04-30T21:24:10.929Z,12.00
2019-04-30T21:26:40.425Z,11.90
2019-04-30T21:29:13.298Z,11.80
2019-04-30T21:32:09.142Z,11.70
2019-04-30T21:34:49.331Z,11.60
2019-04-30T21:37:21.050Z,11.50
2019-04-30T21:39:56.295Z,11.40
2019-04-30T21:42:27.679Z,11.40
2019-04-30T21:45:03.272Z,11.30
2019-04-30T21:47:34.586Z,11.20
2019-04-30T21:50:05.375Z,11.10
2019-04-30T21:52:34.976Z,11.00
2019-04-30T21:55:13.276Z,11.00
2019-04-30T21:57:43.771Z,10.90
2019-04-30T22:00:21.177Z,10.90
2019-04-30T22:02:50.561Z,10.80
2019-04-30T22:05:20.027Z,10.70
2019-04-30T22:07:51.162Z,10.70
2019-04-30T22:10:20.615Z,10.60
2019-04-30T22:12:50.264Z,10.60
2019-04-30T22:15:19.865Z,10.50
2019-04-30T22:17:49.709Z,10.50
2019-04-30T22:20:19.187Z,10.40
2019-04-30T22:22:49.041Z,10.40
2019-04-30T22:25:19.395Z,10.30
2019-04-30T22:27:50.237Z,10.30
2019-04-30T22:30:19.881Z,10.20
2019-04-30T22:32:49.665Z,10.20
2019-04-30T22:35:36.865Z,10.10
2019-04-30T22:38:09.608Z,10.10
2019-04-30T22:40:39.411Z,10.00
2019-04-30T22:43:09.386Z,9.90
2019-04-30T22:45:47.049Z,9.90
2019-04-30T22:48:16.339Z,9.90
2019-04-30T22:50:52.008Z,9.80
2019-04-30T22:53:21.551Z,9.70
2019-04-30T22:55:50.852Z,9.70
2019-04-30T22:58:20.096Z,9.60
2019-04-30T23:00:50.920Z,9.60
2019-04-30T23:03:31.907Z,9.50
2019-04-30T23:06:01.281Z,9.50
2019-04-30T23:08:30.536Z,9.40
2019-04-30T23:10:59.808Z,9.30
2019-04-30T23:13:28.990Z,9.20
2019-04-30T23:15:58.278Z,9.20
2019-04-30T23:18:27.502Z,9.10
2019-04-30T23:20:56.752Z,9.10
2019-04-30T23:23:26.136Z,9.00
2019-04-30T23:25:55.367Z,9.00
2019-04-30T23:28:24.646Z,8.90
2019-04-30T23:30:54.122Z,8.90
2019-04-30T23:33:23.302Z,8.80
2019-04-30T23:35:52.570Z,8.80
2019-04-30T23:38:21.732Z,8.70
2019-04-30T23:40:52.047Z,8.60
2019-04-30T23:43:21.746Z,8.60
2019-04-30T23:45:51.016Z,8.50
2019-04-30T23:48:20.288Z,8.50
2019-04-30T23:50:49.449Z,8.50
2019-04-30T23:53:18.643Z,8.40
2019-04-30T23:55:47.888Z,8.40
2019-04-30T23:58:17.277Z,8.30
